createdAt,value
2022-08-04T00:43:29.437Z,1015.27
2022-08-04T00:53:06.776Z,1015.23
2022-08-04T01:02:43.573Z,1015.24
2022-08-04T01:12:20.349Z,1015.32
2022-08-04T01:21:57.376Z,1015.29
2022-08-04T01:31:34.930Z,1015.23
2022-08-04T01:41:12.281Z,1015.24
2022-08-04T01:50:52.789Z,1015.26
2022-08-04T02:00:27.077Z,1015.27
2022-08-04T02:10:04.323Z,1015.24
2022-08-04T02:19:41.406Z,1015.19
2022-08-04T02:29:18.771Z,1015.15
2022-08-04T02:38:55.780Z,1015.19
2022-08-04T02:48:32.309Z,1015.16
2022-08-04T02:58:07.529Z,1015.12
2022-08-04T03:07:44.386Z,1015.15
2022-08-04T03:17:21.818Z,1015.2
2022-08-04T03:46:14.104Z,1015.34
2022-08-04T03:55:51.723Z,1015.33
2022-08-04T04:05:29.277Z,1015.33
2022-08-04T04:15:06.671Z,1015.34
2022-08-04T04:24:44.002Z,1015.35
2022-08-04T04:34:21.434Z,1015.32
2022-08-04T04:43:59.365Z,1015.42
2022-08-04T04:53:37.190Z,1015.44
2022-08-04T05:03:14.437Z,1015.37
2022-08-04T05:14:34.236Z,1015.33
2022-08-04T05:22:29.525Z,1015.37
2022-08-04T05:32:07.565Z,1015.32
2022-08-04T05:41:47.914Z,1015.3
2022-08-04T05:51:23.562Z,1015.25
2022-08-04T06:01:01.383Z,1015.17
2022-08-04T06:29:56.706Z,1015
2022-08-04T06:39:35.252Z,1014.94
2022-08-04T06:49:13.366Z,1014.89
2022-08-04T06:58:52.075Z,1014.8
2022-08-04T07:08:30.755Z,1014.78
2022-08-04T07:18:09.619Z,1014.64
2022-08-04T07:27:49.330Z,1014.63
2022-08-04T07:37:30.670Z,1014.49
2022-08-04T07:47:05.886Z,1014.35
2022-08-04T07:56:44.828Z,1014.28
2022-08-04T08:06:31.848Z,1014.14
2022-08-04T08:16:02.216Z,1014.05
2022-08-04T08:25:41.430Z,1013.93
2022-08-04T08:35:20.805Z,1013.73
2022-08-04T08:45:00.263Z,1013.63
2022-08-04T08:54:39.500Z,1013.49
2022-08-04T09:04:22.680Z,1013.36
2022-08-04T09:13:58.017Z,1013.28
2022-08-04T09:33:18.066Z,1013.01
2022-08-04T09:43:06.033Z,1012.91
2022-08-04T09:52:53.490Z,1012.82
2022-08-04T10:02:33.390Z,1012.62
2022-08-04T10:12:15.523Z,1012.58
2022-08-04T10:21:59.815Z,1012.44
2022-08-04T10:31:34.418Z,1012.34
2022-08-04T10:41:07.985Z,1012.36
2022-08-04T11:20:32.040Z,1011.8
2022-08-04T11:39:14.468Z,1011.88
2022-08-04T11:49:08.236Z,1011.85
2022-08-04T11:58:33.868Z,1011.88
2022-08-04T12:08:27.724Z,1011.6
2022-08-04T12:18:13.600Z,1011.46
2022-08-04T12:27:53.492Z,1011.5
2022-08-04T12:37:37.760Z,1011.42
2022-08-04T12:47:26.210Z,1011.42
2022-08-04T12:56:22.307Z,1011.64
2022-08-04T13:26:42.125Z,1011.16
2022-08-04T13:35:16.350Z,1011.07
2022-08-04T13:45:12.605Z,1010.65
2022-08-04T13:54:48.862Z,1010.65
2022-08-04T14:04:29.396Z,1010.59
2022-08-04T14:13:55.749Z,1010.63
2022-08-04T14:23:18.674Z,1010.66
2022-08-04T14:33:59.476Z,1010.47
2022-08-04T14:43:09.392Z,1010.24
2022-08-04T15:12:03.213Z,1010.12
2022-08-04T15:21:29.933Z,1009.95
2022-08-04T15:31:03.887Z,1009.96
2022-08-04T15:40:41.268Z,1009.81
2022-08-04T15:50:28.103Z,1009.81
2022-08-04T15:59:55.059Z,1009.78
2022-08-04T16:09:44.813Z,1009.78
2022-08-04T16:19:06.465Z,1009.84
2022-08-04T16:28:41.251Z,1009.79
2022-08-04T16:38:16.556Z,1009.9
2022-08-04T16:47:52.498Z,1009.92
2022-08-04T16:57:29.460Z,1009.97
2022-08-04T17:07:06.825Z,1009.89
2022-08-04T17:16:44.371Z,1009.87
2022-08-04T17:26:21.437Z,1009.8
2022-08-04T17:35:58.125Z,1009.81
2022-08-04T17:45:53.142Z,1009.83
2022-08-04T18:04:49.192Z,1009.93
2022-08-04T18:14:26.093Z,1010.02
2022-08-04T18:24:02.015Z,1010.1
2022-08-04T18:43:14.604Z,1010.25
2022-08-04T19:02:27.755Z,1010.48
2022-08-04T19:12:05.715Z,1010.54
2022-08-04T19:21:59.048Z,1010.71
2022-08-04T19:31:19.100Z,1010.87
2022-08-04T19:50:32.100Z,1011.05
2022-08-04T20:00:09.389Z,1011.07
2022-08-04T20:09:53.496Z,1011.1
2022-08-04T20:19:23.461Z,1011.09
2022-08-04T20:38:38.007Z,1011.28
2022-08-04T20:48:14.968Z,1011.31
2022-08-04T20:57:56.186Z,1011.26
2022-08-04T21:17:07.253Z,1011.32
2022-08-04T21:26:43.493Z,1011.35
2022-08-04T21:36:20.103Z,1011.42
2022-08-04T21:45:56.650Z,1011.48
2022-08-04T21:56:05.239Z,1011.5
2022-08-04T22:05:09.682Z,1011.64
2022-08-04T22:14:46.751Z,1011.68
2022-08-04T22:24:23.462Z,1011.74
2022-08-04T22:43:38.189Z,1011.84
2022-08-04T22:53:17.886Z,1011.89
2022-08-04T23:02:53.823Z,1012.02
2022-08-04T23:12:30.725Z,1012.07
2022-08-04T23:22:07.640Z,1012.06
2022-08-04T23:50:58.417Z,1012.13
